Time;durP1;ratioP1;P1;durP2;ratioP2;P2;SDS_P1;SDS_P2;PMS_P1;PMS_P2;Temp;Humidity;BMP_temperature;BMP_pressure;BME280_temperature;BME280_humidity;BME280_pressure;Samples;Min_cycle;Max_cycle;Signal;HPM_P1;HPM_P2
2021/05/30 00:01:54;;;;;;;6.38;1.90;;;;;;;27.67;28.29;97315.84;4978775;28;20070;-37
2021/05/30 00:04:22;;;;;;;2.22;1.67;;;;;;;27.63;28.10;97313.41;4973436;28;20108;-37
2021/05/30 00:06:48;;;;;;;2.55;1.80;;;;;;;27.65;28.46;97319.41;4972296;28;20065;-33
2021/05/30 00:09:14;;;;;;;1.65;1.55;;;;;;;27.65;28.23;97322.06;4976421;28;20026;-35
2021/05/30 00:11:39;;;;;;;2.83;1.95;;;;;;;27.64;28.33;97317.72;4978380;28;20033;-38
2021/05/30 00:14:05;;;;;;;3.17;1.70;;;;;;;27.67;28.11;97329.00;4979098;28;20033;-40
2021/05/30 00:16:31;;;;;;;2.50;2.00;;;;;;;27.67;28.22;97329.88;4973289;28;20033;-39
2021/05/30 00:18:56;;;;;;;1.65;1.48;;;;;;;27.67;28.25;97329.00;4973025;28;20045;-31
2021/05/30 00:21:22;;;;;;;1.90;1.70;;;;;;;27.64;28.25;97320.34;4985857;28;20499;-35
2021/05/30 00:23:47;;;;;;;2.65;1.75;;;;;;;27.67;28.13;97326.38;4974472;28;20030;-34
2021/05/30 00:26:12;;;;;;;2.03;1.77;;;;;;;27.65;28.34;97329.13;4974353;28;20119;-34
2021/05/30 00:28:38;;;;;;;2.13;1.85;;;;;;;27.64;28.32;97323.00;4970771;28;21750;-39
2021/05/30 00:31:03;;;;;;;3.30;1.55;;;;;;;27.64;28.30;97325.63;4969878;28;20038;-39
2021/05/30 00:33:29;;;;;;;3.03;1.98;;;;;;;27.64;28.19;97325.63;4975623;28;20671;-38
2021/05/30 00:35:54;;;;;;;4.15;1.77;;;;;;;27.60;28.25;97312.66;4972661;28;20029;-35
2021/05/30 00:38:20;;;;;;;1.95;1.70;;;;;;;27.64;28.25;97320.34;4971279;28;20042;-34
2021/05/30 00:40:45;;;;;;;2.03;1.60;;;;;;;27.64;28.25;97324.75;4969431;28;20041;-36
2021/05/30 00:43:11;;;;;;;2.20;1.50;;;;;;;27.63;28.33;97317.81;4972478;28;20665;-31
2021/05/30 00:45:36;;;;;;;1.67;1.40;;;;;;;27.63;28.41;97323.06;4973371;28;20116;-39
2021/05/30 00:48:02;;;;;;;2.17;1.77;;;;;;;27.63;28.30;97318.66;4968526;28;20030;-34
2021/05/30 00:50:27;;;;;;;4.57;1.80;;;;;;;27.63;28.34;97323.06;4969185;28;20026;-32
2021/05/30 00:52:52;;;;;;;1.83;1.65;;;;;;;27.63;28.36;97317.81;4970230;28;20026;-39
2021/05/30 00:55:18;;;;;;;1.73;1.40;;;;;;;27.63;28.35;97323.06;4952703;28;20037;-36
2021/05/30 00:57:44;;;;;;;1.67;1.52;;;;;;;27.63;28.43;97321.28;4972966;28;20034;-36
2021/05/30 01:00:10;;;;;;;2.40;1.70;;;;;;;27.63;28.41;97323.06;4970344;28;20049;-36
2021/05/30 01:02:36;;;;;;;1.92;1.38;;;;;;;27.62;28.40;97324.00;4971536;28;20538;-35
2021/05/30 01:05:01;;;;;;;2.47;1.55;;;;;;;27.62;28.26;97327.47;4969346;28;20017;-35
2021/05/30 01:07:27;;;;;;;2.67;1.60;;;;;;;27.62;28.39;97321.38;4976355;28;20485;-38
2021/05/30 01:09:52;;;;;;;2.47;1.52;;;;;;;27.61;28.28;97323.13;4981264;28;20542;-34
2021/05/30 01:12:18;;;;;;;2.20;1.50;;;;;;;27.62;28.40;97326.63;4984151;28;20052;-36
2021/05/30 01:14:43;;;;;;;1.58;1.38;;;;;;;27.61;28.32;97323.13;4960725;28;20038;-38
2021/05/30 01:17:11;;;;;;;1.90;1.70;;;;;;;27.61;28.47;97324.94;4963456;28;20026;-39
2021/05/30 01:19:38;;;;;;;1.83;1.50;;;;;;;27.61;28.36;97331.03;4979374;28;20038;-40
2021/05/30 01:22:06;;;;;;;1.85;1.45;;;;;;;27.61;28.45;97330.22;4992735;28;20684;-36
2021/05/30 01:24:31;;;;;;;2.28;1.60;;;;;;;27.61;28.35;97331.03;4980287;28;20044;-36
2021/05/30 01:26:56;;;;;;;2.72;1.50;;;;;;;27.61;28.33;97331.03;4982231;28;20030;-36
2021/05/30 01:29:22;;;;;;;2.22;1.50;;;;;;;27.60;28.42;97326.69;4981823;28;20034;-39
2021/05/30 01:31:47;;;;;;;4.38;1.35;;;;;;;27.60;28.37;97334.56;4979903;28;20038;-37
2021/05/30 01:34:13;;;;;;;1.77;1.45;;;;;;;27.60;28.36;97324.03;4978509;28;20037;-35
2021/05/30 01:36:38;;;;;;;4.13;1.73;;;;;;;27.60;28.43;97326.69;4975488;28;20106;-37
2021/05/30 01:39:04;;;;;;;1.80;1.60;;;;;;;27.60;28.43;97321.41;4975493;28;20030;-36
2021/05/30 01:41:30;;;;;;;5.30;1.50;;;;;;;27.55;28.43;97315.53;4973494;28;20033;-34
2021/05/30 01:43:55;;;;;;;1.73;1.33;;;;;;;27.60;28.40;97325.81;4971478;28;20038;-39
2021/05/30 01:46:21;;;;;;;1.55;1.42;;;;;;;27.59;28.40;97327.63;4970479;28;20041;-35
2021/05/30 01:48:46;;;;;;;1.75;1.30;;;;;;;27.58;28.37;97323.25;4969579;28;20023;-37
2021/05/30 01:51:11;;;;;;;1.67;1.33;;;;;;;27.59;28.41;97324.13;4970380;28;20060;-35
2021/05/30 01:53:42;;;;;;;1.70;1.35;;;;;;;27.58;28.37;97325.88;4969954;28;20719;-34
2021/05/30 01:58:33;;;;;;;1.30;1.20;;;;;;;27.58;28.61;97331.16;4969424;28;20030;-39
2021/05/30 02:00:59;;;;;;;1.85;1.25;;;;;;;27.58;28.49;97328.53;4966833;28;20046;-35
2021/05/30 02:03:25;;;;;;;2.00;1.42;;;;;;;27.58;28.50;97330.31;4964866;28;20064;-34
2021/05/30 02:05:51;;;;;;;1.38;1.20;;;;;;;27.57;28.41;97333.91;4605762;28;9999855;-35
2021/05/30 02:08:17;;;;;;;2.25;1.40;;;;;;;27.55;28.54;97331.34;4971379;28;20030;-36
2021/05/30 02:10:42;;;;;;;1.48;1.30;;;;;;;27.58;28.45;97335.59;4952977;28;20595;-36
2021/05/30 02:13:08;;;;;;;1.73;1.20;;;;;;;27.57;28.63;97329.47;4973589;28;20520;-37
2021/05/30 02:15:33;;;;;;;4.32;1.60;;;;;;;27.56;28.48;97327.78;4972909;28;20062;-36
2021/05/30 02:17:59;;;;;;;4.40;1.25;;;;;;;27.57;28.48;97332.09;4972961;28;20034;-34
2021/05/30 02:20:33;;;;;;;1.48;1.30;;;;;;;27.56;28.50;97333.03;4968380;28;20451;-37
2021/05/30 02:22:58;;;;;;;1.83;1.27;;;;;;;27.57;28.40;97323.38;4970202;28;20037;-39
2021/05/30 02:25:24;;;;;;;1.30;1.00;;;;;;;27.58;28.35;97332.97;4968995;28;20037;-36
2021/05/30 02:27:51;;;;;;;1.55;1.40;;;;;;;27.56;28.32;97324.28;4967903;28;20395;-35
2021/05/30 02:30:16;;;;;;;1.30;1.20;;;;;;;27.57;28.46;97328.63;4965443;28;22053;-39
2021/05/30 02:32:42;;;;;;;1.38;1.15;;;;;;;27.56;28.43;97330.41;4969188;28;20105;-38
2021/05/30 02:35:09;;;;;;;1.83;1.10;;;;;;;27.57;28.43;97331.25;4970744;28;20248;-34
2021/05/30 02:37:35;;;;;;;1.95;1.30;;;;;;;27.55;28.40;97336.59;4969728;28;20154;-32
2021/05/30 02:40:00;;;;;;;1.50;1.20;;;;;;;27.55;28.54;97333.97;4971947;28;20618;-34
2021/05/30 02:42:26;;;;;;;3.97;1.60;;;;;;;27.55;28.46;97331.34;4977399;28;20034;-36
2021/05/30 02:44:51;;;;;;;1.13;1.02;;;;;;;27.55;28.41;97330.47;4981396;28;20042;-38
2021/05/30 02:47:16;;;;;;;1.85;1.30;;;;;;;27.56;28.62;97343.56;4977183;28;20454;-33
2021/05/30 02:49:42;;;;;;;2.35;1.20;;;;;;;27.54;28.49;97332.28;4979628;28;20038;-40
2021/05/30 02:52:07;;;;;;;1.63;1.02;;;;;;;27.55;28.41;97341.00;4978667;28;20375;-37
2021/05/30 02:54:32;;;;;;;2.78;1.00;;;;;;;27.55;28.39;97338.38;4980297;28;20030;-33
2021/05/30 02:56:58;;;;;;;1.20;1.10;;;;;;;27.54;28.55;97340.19;4973599;28;20513;-37
2021/05/30 02:59:23;;;;;;;1.52;1.20;;;;;;;27.54;28.49;97337.53;4979384;28;20034;-35
2021/05/30 03:01:49;;;;;;;3.92;1.25;;;;;;;27.53;28.46;97344.56;4976892;28;20520;-34
2021/05/30 03:04:14;;;;;;;3.03;1.13;;;;;;;27.53;28.50;97348.97;4972173;28;20034;-37
2021/05/30 03:06:40;;;;;;;2.58;1.00;;;;;;;27.53;28.51;97348.97;4971444;28;20026;-33
2021/05/30 03:09:05;;;;;;;2.67;1.00;;;;;;;27.53;28.44;97349.84;4972721;28;20038;-35
2021/05/30 03:11:30;;;;;;;1.67;1.10;;;;;;;27.53;28.46;97351.59;4968576;28;20033;-35
2021/05/30 03:13:57;;;;;;;1.70;1.30;;;;;;;27.52;28.54;97342.00;4967461;28;20038;-36
2021/05/30 03:16:23;;;;;;;1.60;1.20;;;;;;;27.52;28.45;97344.66;4970597;28;20815;-34
2021/05/30 03:18:48;;;;;;;1.80;1.10;;;;;;;27.52;28.48;97352.53;4968603;28;20038;-33
2021/05/30 03:21:14;;;;;;;1.17;0.95;;;;;;;27.52;28.46;97349.91;4967726;28;20399;-37
2021/05/30 03:23:39;;;;;;;1.23;1.13;;;;;;;27.51;28.52;97346.41;4969980;28;20629;-37
2021/05/30 03:26:04;;;;;;;2.33;0.88;;;;;;;27.51;28.60;97350.84;4973112;28;20065;-39
2021/05/30 03:28:30;;;;;;;1.92;1.15;;;;;;;27.50;28.64;97349.16;4956614;28;20034;-36
2021/05/30 03:30:55;;;;;;;1.60;1.05;;;;;;;27.51;28.61;97350.84;4972235;28;20053;-37
2021/05/30 03:33:21;;;;;;;1.75;0.93;;;;;;;27.51;28.53;97354.31;4973515;28;20030;-36
2021/05/30 03:35:46;;;;;;;2.72;1.30;;;;;;;27.50;28.55;97355.25;4973503;28;20026;-35
2021/05/30 03:38:14;;;;;;;0.98;0.82;;;;;;;27.50;28.55;97357.88;4972357;28;20433;-34
2021/05/30 03:40:47;;;;;;;1.10;0.82;;;;;;;27.51;28.46;97350.84;4977661;28;20106;-33
2021/05/30 03:43:13;;;;;;;1.67;1.10;;;;;;;27.50;28.55;97351.78;4977751;28;20255;-34
2021/05/30 03:45:38;;;;;;;2.28;1.10;;;;;;;27.50;28.60;97346.53;4972527;28;20034;-35
2021/05/30 03:48:05;;;;;;;2.15;0.93;;;;;;;27.49;28.50;97345.66;4971277;28;20080;-39
2021/05/30 03:50:30;;;;;;;2.97;1.17;;;;;;;27.50;28.60;97346.53;4973997;28;20037;-36
2021/05/30 03:52:56;;;;;;;1.40;1.02;;;;;;;27.50;28.53;97349.16;4973100;28;20503;-31
2021/05/30 03:55:21;;;;;;;1.92;0.93;;;;;;;27.49;28.51;97342.16;4972178;28;20072;-36
2021/05/30 03:57:47;;;;;;;1.27;0.95;;;;;;;27.49;28.54;97356.19;4972715;28;20027;-33
2021/05/30 04:00:14;;;;;;;2.13;1.08;;;;;;;27.49;28.59;97352.69;4972290;28;20603;-38
2021/05/30 04:02:40;;;;;;;1.00;0.90;;;;;;;27.49;28.52;97352.69;4970810;28;20030;-33
2021/05/30 04:05:05;;;;;;;1.45;0.82;;;;;;;27.49;28.55;97358.81;4981649;28;20048;-35
2021/05/30 04:07:36;;;;;;;1.60;0.98;;;;;;;27.48;28.58;97361.53;4983569;28;20481;-32
2021/05/30 04:10:07;;;;;;;0.88;0.82;;;;;;;27.48;28.62;97362.41;4981828;28;20038;-33
2021/05/30 04:12:33;;;;;;;3.50;0.95;;;;;;;27.48;28.50;97361.53;4982270;28;20033;-37
2021/05/30 04:14:58;;;;;;;0.95;0.80;;;;;;;27.48;28.63;97361.53;4980472;28;20030;-36
2021/05/30 04:17:24;;;;;;;0.95;0.75;;;;;;;27.48;28.64;97364.16;4977378;28;20508;-37
2021/05/30 04:19:49;;;;;;;1.20;1.00;;;;;;;27.46;28.56;97363.41;4983030;28;20496;-34
2021/05/30 04:22:14;;;;;;;0.95;0.90;;;;;;;27.47;28.59;97359.84;4977384;28;20741;-35
2021/05/30 04:24:40;;;;;;;2.40;0.98;;;;;;;27.47;28.54;97359.84;4977826;28;20030;-36
2021/05/30 04:27:06;;;;;;;1.27;0.80;;;;;;;27.46;28.63;97358.97;4981786;28;20746;-37
2021/05/30 04:29:31;;;;;;;3.92;0.90;;;;;;;27.47;28.55;97359.84;4987256;28;20124;-34
2021/05/30 04:31:58;;;;;;;1.33;0.80;;;;;;;27.47;28.68;97359.84;4976860;28;20041;-36
2021/05/30 04:34:24;;;;;;;1.83;0.98;;;;;;;27.47;28.55;97351.94;4984397;28;20033;-37
2021/05/30 04:36:49;;;;;;;1.27;1.00;;;;;;;27.47;28.66;97357.19;4979989;28;20100;-38
2021/05/30 04:39:14;;;;;;;1.23;0.80;;;;;;;27.47;28.52;97354.56;4981991;28;20920;-39
2021/05/30 04:41:40;;;;;;;1.80;0.82;;;;;;;27.46;28.48;97358.97;4972814;28;20618;-34
2021/05/30 04:44:05;;;;;;;1.30;1.00;;;;;;;27.46;28.54;97347.63;4971770;28;20036;-37
2021/05/30 04:46:31;;;;;;;1.10;0.90;;;;;;;27.46;28.56;97347.63;4971246;28;20676;-38
2021/05/30 04:48:56;;;;;;;2.17;0.82;;;;;;;27.47;28.47;97351.94;4971170;28;20390;-40
2021/05/30 04:51:21;;;;;;;1.75;0.80;;;;;;;27.46;28.64;97350.25;4970808;28;20045;-38
2021/05/30 04:53:47;;;;;;;1.08;0.90;;;;;;;27.46;28.58;97355.50;4973194;28;20068;-35
2021/05/30 04:56:17;;;;;;;2.15;0.90;;;;;;;27.45;28.47;97352.00;4970095;28;20666;-35
2021/05/30 04:58:42;;;;;;;4.20;1.05;;;;;;;27.46;28.49;97363.41;4973170;28;20030;-36
2021/05/30 05:01:08;;;;;;;1.33;1.00;;;;;;;27.45;28.50;97356.41;4969746;28;20057;-37
2021/05/30 05:03:33;;;;;;;1.35;0.80;;;;;;;27.46;28.55;97358.13;4970825;28;20936;-37
2021/05/30 05:05:59;;;;;;;3.45;0.80;;;;;;;27.44;28.64;97350.31;4970093;28;20026;-34
2021/05/30 05:08:27;;;;;;;1.02;0.88;;;;;;;27.44;28.69;97355.59;4969011;28;20140;-38
2021/05/30 05:10:52;;;;;;;0.93;0.80;;;;;;;27.44;28.64;97345.06;4972771;28;20697;-41
2021/05/30 05:13:18;;;;;;;0.82;0.82;;;;;;;27.45;28.58;97353.78;4971198;28;20049;-39
2021/05/30 05:15:50;;;;;;;0.93;0.75;;;;;;;27.45;28.76;97356.41;4954400;28;20091;-37
2021/05/30 05:18:17;;;;;;;1.80;0.90;;;;;;;27.44;28.70;97355.59;4974442;28;20026;-38
2021/05/30 05:20:43;;;;;;;1.80;0.80;;;;;;;27.44;28.77;97357.34;4969382;28;20077;-38
2021/05/30 05:23:08;;;;;;;0.70;0.60;;;;;;;27.45;28.76;97353.78;4969843;28;20157;-38
2021/05/30 05:25:35;;;;;;;1.52;0.65;;;;;;;27.45;28.82;97348.50;4972715;28;20046;-36
2021/05/30 05:28:02;;;;;;;0.90;0.82;;;;;;;27.44;28.83;97355.59;4973154;28;20100;-36
2021/05/30 05:30:27;;;;;;;1.83;0.60;;;;;;;27.46;28.89;97352.88;4970694;28;20037;-32
2021/05/30 05:32:53;;;;;;;0.88;0.57;;;;;;;27.44;28.90;97354.72;4970226;28;20095;-34
2021/05/30 05:35:18;;;;;;;0.98;0.68;;;;;;;27.45;28.59;97356.41;4967782;28;20057;-34
2021/05/30 05:37:44;;;;;;;0.52;0.50;;;;;;;27.45;28.89;97356.41;4967572;28;20029;-33
2021/05/30 05:40:10;;;;;;;0.82;0.60;;;;;;;27.45;28.90;97348.50;4971561;28;20815;-38
2021/05/30 05:42:36;;;;;;;1.00;0.70;;;;;;;27.46;28.96;97352.88;4976413;28;20044;-37
2021/05/30 05:45:03;;;;;;;1.17;0.57;;;;;;;27.46;28.87;97347.63;4979504;28;20057;-35
2021/05/30 05:47:28;;;;;;;3.10;0.57;;;;;;;27.46;28.97;97350.25;4982599;28;20037;-34
2021/05/30 05:49:53;;;;;;;0.75;0.75;;;;;;;27.46;29.03;97350.25;4975000;28;20022;-36
2021/05/30 05:52:19;;;;;;;0.80;0.60;;;;;;;27.45;28.97;97345.88;4979626;28;20042;-40
2021/05/30 05:54:44;;;;;;;0.75;0.70;;;;;;;27.46;28.95;97358.97;4974377;28;20153;-38
2021/05/30 05:57:09;;;;;;;0.88;0.50;;;;;;;27.45;28.85;97351.16;4982342;28;20591;-35
2021/05/30 05:59:35;;;;;;;0.88;0.80;;;;;;;27.46;28.99;97355.50;4979106;28;20088;-35
2021/05/30 06:02:00;;;;;;;0.98;0.60;;;;;;;27.46;28.91;97358.13;4982405;28;20034;-33
2021/05/30 06:04:26;;;;;;;1.08;0.68;;;;;;;27.46;28.91;97351.06;4978818;28;20026;-36
2021/05/30 06:06:51;;;;;;;0.70;0.70;;;;;;;27.46;28.95;97344.97;4979827;28;20072;-32
2021/05/30 06:09:17;;;;;;;0.50;0.45;;;;;;;27.46;29.01;97358.97;4981171;28;20030;-37
2021/05/30 06:11:43;;;;;;;0.60;0.60;;;;;;;27.46;28.95;97355.50;4966806;28;20041;-37
2021/05/30 06:14:09;;;;;;;0.63;0.63;;;;;;;27.46;28.99;97358.13;4972617;28;20696;-32
2021/05/30 06:16:34;;;;;;;0.63;0.47;;;;;;;27.47;29.03;97357.19;4970509;28;20033;-37
2021/05/30 06:19:00;;;;;;;0.50;0.50;;;;;;;27.46;29.02;97352.88;4970689;28;20717;-37
2021/05/30 06:21:26;;;;;;;0.60;0.45;;;;;;;27.47;28.91;97359.84;4971791;28;20026;-36
2021/05/30 06:23:52;;;;;;;0.80;0.60;;;;;;;27.48;29.00;97353.63;4970990;28;20068;-36
2021/05/30 06:26:17;;;;;;;1.75;0.77;;;;;;;27.47;28.90;97354.56;4969785;28;20041;-39
2021/05/30 06:28:42;;;;;;;0.98;0.50;;;;;;;27.48;29.04;97353.63;4969602;28;20136;-37
2021/05/30 06:31:08;;;;;;;0.85;0.57;;;;;;;27.47;28.86;97362.47;4969011;28;20840;-39
2021/05/30 06:33:33;;;;;;;1.10;0.70;;;;;;;27.48;28.99;97358.91;4969913;28;20038;-32
2021/05/30 06:35:59;;;;;;;0.80;0.60;;;;;;;27.48;28.80;97351.00;4970684;28;20038;-38
2021/05/30 06:38:27;;;;;;;0.85;0.70;;;;;;;27.48;28.99;97351.00;4970177;28;20053;-34
2021/05/30 06:40:52;;;;;;;1.05;0.75;;;;;;;27.48;28.79;97351.00;4967647;28;20105;-31
2021/05/30 06:43:18;;;;;;;1.15;0.63;;;;;;;27.48;28.68;97351.88;4968759;28;20360;-35
2021/05/30 06:45:43;;;;;;;4.25;0.98;;;;;;;27.49;28.67;97350.06;4968784;28;20034;-34
2021/05/30 06:48:09;;;;;;;0.80;0.57;;;;;;;27.49;28.67;97347.44;4966735;28;20025;-37
2021/05/30 06:50:34;;;;;;;1.98;0.90;;;;;;;27.50;28.71;97349.16;4968000;28;20699;-31
2021/05/30 06:52:59;;;;;;;1.30;0.68;;;;;;;27.49;28.73;97348.28;4969342;28;20018;-34
2021/05/30 06:55:25;;;;;;;5.70;1.00;;;;;;;27.50;28.82;97347.34;4967733;28;20076;-34
2021/05/30 06:57:50;;;;;;;4.70;1.40;;;;;;;27.51;28.97;97346.41;4973732;28;20022;-34
2021/05/30 07:00:16;;;;;;;4.47;1.40;;;;;;;27.53;29.08;97354.25;4972887;28;20038;-37
2021/05/30 07:02:42;;;;;;;10.82;1.45;;;;;;;27.52;28.98;97350.78;4973402;28;20759;-36
2021/05/30 07:05:08;;;;;;;3.10;1.20;;;;;;;27.53;28.88;97354.25;4970026;28;20034;-39
2021/05/30 07:07:34;;;;;;;4.30;1.15;;;;;;;27.54;28.78;97355.97;4965527;28;20070;-35
2021/05/30 07:09:59;;;;;;;12.93;1.50;;;;;;;27.55;28.58;97356.81;4971736;28;20055;-34
2021/05/30 07:12:25;;;;;;;2.50;1.30;;;;;;;27.53;28.20;97362.13;4970755;28;20280;-36
2021/05/30 07:14:50;;;;;;;5.80;1.55;;;;;;;27.54;27.85;97363.88;4972042;28;20026;-38
2021/05/30 07:17:16;;;;;;;4.68;1.60;;;;;;;27.53;27.61;97367.41;4966139;28;20042;-34
2021/05/30 07:19:46;;;;;;;6.25;1.60;;;;;;;27.54;27.28;97363.88;4971651;28;20085;-37
2021/05/30 07:22:12;;;;;;;2.47;1.55;;;;;;;27.51;27.38;97364.84;4974608;28;20034;-34
2021/05/30 07:24:37;;;;;;;7.75;2.30;;;;;;;27.52;27.09;97365.72;4975478;28;20037;-35
2021/05/30 07:27:03;;;;;;;2.17;1.30;;;;;;;27.50;27.05;97355.25;4972689;28;20037;-34
2021/05/30 07:29:28;;;;;;;2.40;1.33;;;;;;;27.50;26.93;97370.22;4973549;28;20499;-32
2021/05/30 07:31:54;;;;;;;2.13;1.40;;;;;;;27.49;26.88;97360.59;4970879;28;20053;-33
2021/05/30 07:34:19;;;;;;;2.63;1.60;;;;;;;27.49;26.82;97364.09;4969881;28;20685;-34
2021/05/30 07:36:45;;;;;;;4.85;1.63;;;;;;;27.49;26.82;97369.34;4975100;28;20037;-37
2021/05/30 07:39:10;;;;;;;1.70;1.17;;;;;;;27.49;26.80;97368.50;4973106;28;20034;-35
2021/05/30 07:41:35;;;;;;;5.18;1.58;;;;;;;27.49;26.67;97363.22;4971167;28;20037;-38
2021/05/30 07:44:01;;;;;;;2.17;1.50;;;;;;;27.50;26.62;97370.22;4971567;28;20034;-37
2021/05/30 07:46:27;;;;;;;3.25;1.20;;;;;;;27.50;26.69;97371.03;4971302;28;20254;-38
2021/05/30 07:48:52;;;;;;;2.03;1.45;;;;;;;27.50;26.67;97365.78;4955037;28;20124;-42
2021/05/30 07:51:17;;;;;;;2.72;1.40;;;;;;;27.51;26.56;97371.91;4971896;28;20769;-35
2021/05/30 07:53:43;;;;;;;2.38;1.10;;;;;;;27.49;26.48;97366.72;4973647;28;20038;-36
2021/05/30 07:56:11;;;;;;;6.10;1.27;;;;;;;27.50;26.36;97365.78;4987471;28;20022;-32
2021/05/30 07:58:37;;;;;;;6.55;1.40;;;;;;;27.51;26.39;97367.47;4973262;28;20037;-37
2021/05/30 08:01:03;;;;;;;1.95;1.30;;;;;;;27.52;26.36;97365.72;4971809;28;20096;-39
2021/05/30 08:03:28;;;;;;;5.22;1.30;;;;;;;27.52;26.34;97368.34;4973001;28;20772;-37
2021/05/30 08:05:55;;;;;;;3.17;1.52;;;;;;;27.53;26.21;97364.78;4972421;28;20791;-38
2021/05/30 08:08:21;;;;;;;2.83;1.50;;;;;;;27.53;26.22;97355.09;4972397;28;20117;-41
2021/05/30 08:10:48;;;;;;;3.20;1.33;;;;;;;27.54;26.16;97361.22;4981419;28;20443;-42
2021/05/30 08:13:14;;;;;;;2.30;1.35;;;;;;;27.54;26.20;97353.34;4976997;28;20685;-38
2021/05/30 08:15:39;;;;;;;1.58;1.20;;;;;;;27.56;26.21;97358.50;4979083;28;20693;-38
2021/05/30 08:18:05;;;;;;;2.97;1.45;;;;;;;27.56;26.21;97363.75;4978852;28;20042;-34
2021/05/30 08:20:30;;;;;;;3.47;1.42;;;;;;;27.56;25.99;97375.16;4987485;28;20530;-35
2021/05/30 08:22:56;;;;;;;2.95;1.10;;;;;;;27.56;26.03;97359.34;4976066;28;20033;-37
2021/05/30 08:25:21;;;;;;;4.13;1.30;;;;;;;27.56;25.77;97364.63;4976091;28;20037;-37
2021/05/30 08:27:48;;;;;;;2.58;1.50;;;;;;;27.56;25.85;97375.16;4981360;28;20033;-36
2021/05/30 08:30:14;;;;;;;4.70;1.83;;;;;;;27.46;20.63;97358.13;4976623;28;20264;-32
2021/05/30 08:32:39;;;;;;;1.80;1.30;;;;;;;27.36;19.84;97365.63;4973385;28;20108;-32
2021/05/30 08:35:05;;;;;;;6.57;1.80;;;;;;;27.23;18.74;97373.31;4977764;28;20033;-33
2021/05/30 08:37:30;;;;;;;3.10;1.60;;;;;;;27.09;19.07;97372.22;4972870;28;20030;-34
2021/05/30 08:39:56;;;;;;;2.83;1.60;;;;;;;26.96;19.40;97376.38;4978201;28;20762;-40
2021/05/30 08:42:24;;;;;;;14.65;2.45;;;;;;;26.86;19.47;97375.94;4976239;28;20034;-37
2021/05/30 08:44:50;;;;;;;3.08;1.50;;;;;;;26.82;19.89;97374.38;4976657;28;20416;-36
2021/05/30 08:47:18;;;;;;;6.55;1.45;;;;;;;26.78;20.25;97368.44;4977707;28;20033;-39
2021/05/30 08:49:43;;;;;;;3.15;1.50;;;;;;;26.77;20.55;97366.69;4976035;28;20022;-39
2021/05/30 08:52:09;;;;;;;3.17;1.50;;;;;;;26.79;20.99;97370.13;4974441;28;20140;-37
2021/05/30 08:54:34;;;;;;;3.75;1.50;;;;;;;26.80;21.18;97371.81;4976155;28;20030;-37
2021/05/30 08:57:00;;;;;;;3.53;1.40;;;;;;;26.82;21.57;97367.34;4975939;28;20026;-34
2021/05/30 08:59:36;;;;;;;4.20;1.55;;;;;;;26.84;21.82;97376.00;4969154;28;20042;-40
2021/05/30 09:02:10;;;;;;;2.20;1.40;;;;;;;26.88;21.98;97369.69;4976807;28;20030;-39
2021/05/30 09:04:40;;;;;;;2.33;1.65;;;;;;;26.92;22.15;97365.09;4976177;28;20117;-37
2021/05/30 09:07:06;;;;;;;3.63;1.83;;;;;;;26.94;22.27;97372.94;4958688;28;20106;-41
2021/05/30 09:09:49;;;;;;;2.42;1.50;;;;;;;26.98;22.65;97374.50;4977203;28;20162;-39
2021/05/30 09:12:40;;;;;;;3.38;1.52;;;;;;;27.02;22.87;97370.81;4976059;28;20038;-41
2021/05/30 09:15:09;;;;;;;3.15;1.70;;;;;;;27.05;22.97;97365.41;4968737;28;20054;-37
2021/05/30 09:17:35;;;;;;;2.80;1.63;;;;;;;27.08;23.11;97367.88;4977594;28;20023;-34
2021/05/30 09:20:01;;;;;;;3.75;1.80;;;;;;;27.11;23.24;97367.72;4995111;28;20680;-39
2021/05/30 09:22:29;;;;;;;4.40;1.60;;;;;;;27.15;23.37;97360.53;4972480;28;20054;-38
2021/05/30 09:25:11;;;;;;;3.33;1.33;;;;;;;27.18;23.55;97367.41;4978653;28;20507;-34
2021/05/30 09:27:40;;;;;;;;;;;;;;;27.22;23.60;97363.69;4992787;28;20052;-35
2021/05/30 09:30:17;;;;;;;6.20;1.50;;;;;;;27.23;23.95;97353.09;4979252;28;19922;-37
2021/05/30 09:33:18;;;;;;;5.40;1.85;;;;;;;27.27;24.04;97369.59;4980778;28;20053;-38
2021/05/30 09:35:48;;;;;;;2.97;1.73;;;;;;;27.29;24.05;97366.88;4967919;28;20045;-37
2021/05/30 09:38:21;;;;;;;4.35;1.63;;;;;;;27.30;24.33;97356.28;4979217;28;20101;-41
2021/05/30 09:40:57;;;;;;;4.63;1.85;;;;;;;27.33;24.38;97369.28;4974924;28;20711;-37
2021/05/30 09:43:33;;;;;;;3.08;1.60;;;;;;;27.34;24.55;97368.34;4974499;28;20025;-35
2021/05/30 09:46:05;;;;;;;2.92;1.48;;;;;;;27.32;24.70;97367.59;4977951;28;20030;-38
2021/05/30 09:48:31;;;;;;;3.92;1.50;;;;;;;27.38;24.67;97367.25;4973166;28;20045;-40
2021/05/30 09:53:51;;;;;;;6.55;1.70;;;;;;;27.43;24.97;97371.44;4976069;28;20061;-39
2021/05/30 09:56:51;;;;;;;4.13;1.65;;;;;;;27.44;25.04;97367.88;4976029;28;20110;-36
2021/05/30 09:59:18;;;;;;;2.47;1.50;;;;;;;27.46;25.06;97371.31;4975827;28;20034;-34
2021/05/30 10:01:46;;;;;;;3.33;1.80;;;;;;;27.48;25.24;97369.44;4976956;28;20177;-35
2021/05/30 10:04:12;;;;;;;6.43;1.83;;;;;;;27.49;25.31;97365.84;4976637;28;20034;-35
2021/05/30 10:06:37;;;;;;;2.55;1.50;;;;;;;27.50;25.37;97364.94;4961703;28;21015;-37
2021/05/30 10:09:03;;;;;;;2.40;1.50;;;;;;;27.52;25.40;97368.34;4979255;28;20026;-40
2021/05/30 10:11:28;;;;;;;7.82;2.00;;;;;;;27.53;25.43;97360.38;4976915;28;20520;-35
2021/05/30 10:13:54;;;;;;;4.00;1.67;;;;;;;27.54;25.61;97371.75;4974745;28;20049;-39
2021/05/30 10:16:19;;;;;;;3.28;1.52;;;;;;;27.55;25.67;97370.81;4975396;28;20032;-39
2021/05/30 10:18:51;;;;;;;5.00;1.65;;;;;;;27.55;25.80;97352.41;4977468;28;20396;-33
2021/05/30 10:21:17;;;;;;;4.13;1.50;;;;;;;27.58;25.70;97361.91;4974077;28;20428;-38
2021/05/30 10:23:43;;;;;;;3.78;1.80;;;;;;;27.58;25.82;97362.75;4976211;28;20029;-35
2021/05/30 10:26:17;;;;;;;4.10;1.65;;;;;;;27.59;25.81;97356.56;4958616;28;20034;-36
2021/05/30 10:28:54;;;;;;;3.60;1.40;;;;;;;27.60;25.98;97365.31;4978539;28;20038;-39
2021/05/30 10:31:26;;;;;;;2.13;1.40;;;;;;;27.60;26.05;97355.63;4975733;28;20053;-39
2021/05/30 10:34:11;;;;;;;2.33;1.58;;;;;;;27.60;26.21;97358.28;4977357;28;20629;-38
2021/05/30 10:36:36;;;;;;;3.00;1.70;;;;;;;27.62;25.99;97351.16;4977086;28;20022;-32
2021/05/30 10:39:02;;;;;;;6.68;1.45;;;;;;;27.62;26.14;97353.78;4974954;28;20028;-34
2021/05/30 10:41:28;;;;;;;5.68;2.15;;;;;;;27.63;26.16;97360.78;4975746;28;20034;-37
2021/05/30 10:43:53;;;;;;;2.97;1.50;;;;;;;27.64;26.28;97357.22;4977895;28;20925;-37
2021/05/30 10:46:19;;;;;;;6.75;1.30;;;;;;;27.65;26.28;97351.00;4975549;28;20034;-38
2021/05/30 10:49:10;;;;;;;5.68;1.50;;;;;;;27.64;26.38;97351.94;4974922;28;20026;-34
2021/05/30 10:51:43;;;;;;;8.32;1.40;;;;;;;27.68;26.35;97349.16;4972759;28;20213;-40
2021/05/30 10:54:11;;;;;;;3.03;1.50;;;;;;;27.68;26.43;97346.53;4978578;28;20107;-34
2021/05/30 10:56:39;;;;;;;2.05;1.30;;;;;;;27.69;26.35;97353.50;4974480;28;20416;-38
2021/05/30 10:59:07;;;;;;;3.70;1.50;;;;;;;27.69;26.43;97348.22;4975110;28;20127;-35
2021/05/30 11:01:41;;;;;;;2.65;1.42;;;;;;;27.70;26.47;97349.91;4974048;28;20544;-36
2021/05/30 11:04:27;;;;;;;3.50;1.30;;;;;;;27.70;26.48;97350.78;4977677;28;20034;-38
2021/05/30 11:06:53;;;;;;;1.35;1.15;;;;;;;27.71;26.39;97347.22;4982434;28;20501;-39
2021/05/30 11:09:18;;;;;;;3.50;1.65;;;;;;;27.72;26.42;97342.81;4975161;28;20045;-35
2021/05/30 11:11:44;;;;;;;4.35;1.70;;;;;;;27.72;26.64;97333.09;4976071;28;20022;-38
2021/05/30 11:14:10;;;;;;;4.30;1.63;;;;;;;27.74;26.57;97338.31;4977881;28;20081;-33
2021/05/30 11:16:44;;;;;;;4.00;1.30;;;;;;;27.74;26.57;97326.00;4981077;28;20052;-41
2021/05/30 11:19:10;;;;;;;2.92;1.67;;;;;;;27.76;26.63;97328.53;4976352;28;20053;-38
2021/05/30 11:21:38;;;;;;;4.55;1.00;;;;;;;27.77;26.66;97335.50;4974336;28;20046;-35
2021/05/30 11:24:05;;;;;;;3.42;1.40;;;;;;;27.78;26.75;97337.22;4973528;28;21277;-36
2021/05/30 11:26:30;;;;;;;4.97;1.45;;;;;;;27.73;26.66;97326.91;4975463;28;20036;-41
2021/05/30 11:28:55;;;;;;;6.43;1.30;;;;;;;27.79;26.66;97336.28;4977398;28;20022;-36
2021/05/30 11:31:23;;;;;;;1.90;1.35;;;;;;;27.79;26.65;97333.63;4971776;28;20755;-36
2021/05/30 11:34:07;;;;;;;2.67;1.10;;;;;;;27.80;26.89;97339.75;4976955;28;20547;-38
2021/05/30 11:36:35;;;;;;;4.32;1.27;;;;;;;27.80;26.86;97337.97;4963870;28;20237;-32
2021/05/30 11:39:12;;;;;;;1.70;1.10;;;;;;;27.74;26.95;97323.38;4975081;28;20333;-39